Time;durP1;ratioP1;P1;durP2;ratioP2;P2;SDS_P1;SDS_P2;PMS_P1;PMS_P2;Temp;Humidity;BMP_temperature;BMP_pressure;BME280_temperature;BME280_humidity;BME280_pressure;Samples;Min_cycle;Max_cycle;Signal;HPM_P1;HPM_P2
2022/08/06 00:01:34;;;;;;;0.98;0.20;;;15.90;99.90;;;;;;5037207;28;20041;-77
2022/08/06 00:04:00;;;;;;;1.98;0.30;;;16.00;99.90;;;;;;5035838;28;20045;-77
2022/08/06 00:06:26;;;;;;;1.08;0.32;;;15.90;99.90;;;;;;5035882;28;20103;-77
2022/08/06 00:08:52;;;;;;;1.10;0.30;;;15.90;99.90;;;;;;5035744;28;20447;-77
2022/08/06 00:11:18;;;;;;;2.20;0.20;;;15.90;99.90;;;;;;5037100;28;20488;-77
2022/08/06 00:13:43;;;;;;;3.10;0.30;;;15.90;99.90;;;;;;5035562;28;20400;-77
2022/08/06 00:16:09;;;;;;;1.17;0.30;;;16.00;99.90;;;;;;5037044;28;20041;-77
2022/08/06 00:18:35;;;;;;;0.30;0.20;;;16.00;99.90;;;;;;5037016;28;20053;-77
2022/08/06 00:21:00;;;;;;;0.82;0.30;;;16.00;99.90;;;;;;5036876;28;20041;-77
2022/08/06 00:23:26;;;;;;;1.52;0.20;;;16.00;99.90;;;;;;5036790;28;20489;-77
2022/08/06 00:25:53;;;;;;;3.78;0.30;;;15.90;99.90;;;;;;5036862;28;20477;-77
2022/08/06 00:28:24;;;;;;;0.77;0.20;;;16.00;99.90;;;;;;5035239;28;20183;-77
2022/08/06 00:30:49;;;;;;;1.05;0.30;;;16.00;99.90;;;;;;5036774;28;20037;-77
2022/08/06 00:33:15;;;;;;;2.70;0.35;;;15.90;99.90;;;;;;5035658;28;20373;-77
2022/08/06 00:35:41;;;;;;;0.65;0.20;;;15.90;99.90;;;;;;5036658;28;20050;-77
2022/08/06 00:38:07;;;;;;;0.20;0.20;;;16.00;99.90;;;;;;5035360;28;20048;-77
2022/08/06 00:40:32;;;;;;;0.70;0.20;;;15.90;99.90;;;;;;5036517;28;20045;-77
2022/08/06 00:43:00;;;;;;;1.08;0.30;;;16.00;99.90;;;;;;5035051;28;20033;-77
2022/08/06 00:45:26;;;;;;;1.83;0.52;;;15.90;99.90;;;;;;5035352;28;20053;-77
2022/08/06 00:47:54;;;;;;;0.77;0.28;;;16.00;99.90;;;;;;5036434;28;20539;-77
2022/08/06 00:50:20;;;;;;;1.15;0.38;;;15.90;99.90;;;;;;5034925;28;20053;-77
2022/08/06 00:52:46;;;;;;;0.32;0.20;;;15.90;99.90;;;;;;5036341;28;20128;-77
2022/08/06 00:55:12;;;;;;;2.50;0.30;;;15.90;99.90;;;;;;5036284;28;20048;-77
2022/08/06 00:57:38;;;;;;;4.20;0.45;;;15.90;99.90;;;;;;5036075;28;20053;-77
2022/08/06 01:00:05;;;;;;;0.88;0.28;;;15.90;99.90;;;;;;5036167;28;20096;-77
2022/08/06 01:02:31;;;;;;;1.23;0.20;;;15.90;99.90;;;;;;5035968;28;20444;-77
2022/08/06 01:04:57;;;;;;;2.08;1.17;;;15.90;99.90;;;;;;5036159;28;20485;-77
2022/08/06 01:07:22;;;;;;;1.17;0.30;;;16.00;99.90;;;;;;5035640;28;20366;-77
2022/08/06 01:09:49;;;;;;;2.10;0.40;;;16.00;99.90;;;;;;5034735;28;20469;-77
2022/08/06 01:12:15;;;;;;;1.83;0.28;;;16.00;99.90;;;;;;5036009;28;20077;-77
2022/08/06 01:14:41;;;;;;;2.42;0.30;;;15.90;99.90;;;;;;5035791;28;20077;-77
2022/08/06 01:17:17;;;;;;;0.50;0.20;;;15.90;99.90;;;;;;5034557;28;20085;-77
2022/08/06 01:20:01;;;;;;;0.68;0.20;;;15.90;99.90;;;;;;5035889;28;20056;-77
2022/08/06 01:23:02;;;;;;;1.77;0.35;;;15.90;99.90;;;;;;5035788;28;20041;-77
2022/08/06 01:25:46;;;;;;;0.10;0.10;;;15.90;99.90;;;;;;5026718;28;20053;-77
2022/08/06 01:28:15;;;;;;;0.45;0.20;;;15.80;99.90;;;;;;5034116;28;20061;-77
2022/08/06 01:30:50;;;;;;;0.82;0.30;;;15.80;99.90;;;;;;5035588;28;20060;-77
2022/08/06 01:33:35;;;;;;;2.35;0.20;;;15.80;99.90;;;;;;5035625;28;20064;-77
2022/08/06 01:36:06;;;;;;;2.40;0.40;;;15.80;99.90;;;;;;5035599;28;20060;-77
2022/08/06 01:38:34;;;;;;;2.75;1.15;;;15.80;99.90;;;;;;5035543;28;20048;-77
2022/08/06 01:41:04;;;;;;;2.28;0.20;;;15.70;99.90;;;;;;5035384;28;20033;-77
2022/08/06 01:43:32;;;;;;;0.40;0.10;;;15.70;99.90;;;;;;5034290;28;20500;-77
2022/08/06 01:45:59;;;;;;;1.23;0.30;;;15.80;99.90;;;;;;5035192;28;20516;-77
2022/08/06 01:48:27;;;;;;;1.60;0.30;;;15.80;99.90;;;;;;5035669;28;20049;-77
2022/08/06 01:50:57;;;;;;;0.75;0.20;;;15.80;99.90;;;;;;5033952;28;20045;-77
2022/08/06 01:53:29;;;;;;;1.63;0.20;;;15.70;99.90;;;;;;5035498;28;20040;-77
2022/08/06 01:55:59;;;;;;;1.30;0.20;;;15.70;99.90;;;;;;5033789;28;20050;-77
2022/08/06 01:58:30;;;;;;;0.47;0.13;;;15.70;99.90;;;;;;5035175;28;20041;-77
2022/08/06 02:00:58;;;;;;;0.70;0.20;;;15.70;99.90;;;;;;5033782;28;20079;-77
2022/08/06 02:03:51;;;;;;;0.75;0.20;;;15.70;99.90;;;;;;5035022;28;20172;-77
2022/08/06 02:06:36;;;;;;;1.58;0.10;;;15.70;99.90;;;;;;5034532;28;20489;-77
2022/08/06 02:09:05;;;;;;;1.33;0.20;;;15.60;99.90;;;;;;5034737;28;20108;-77
2022/08/06 02:11:34;;;;;;;1.52;0.30;;;15.70;99.90;;;;;;5033755;28;20120;-77
2022/08/06 02:14:01;;;;;;;3.95;0.40;;;15.70;99.90;;;;;;5033758;28;20050;-77
2022/08/06 02:16:39;;;;;;;0.40;0.20;;;15.70;99.90;;;;;;5034672;28;20050;-77
2022/08/06 02:19:07;;;;;;;1.00;0.25;;;15.70;99.90;;;;;;5034193;28;20052;-77
2022/08/06 02:21:35;;;;;;;0.60;0.20;;;15.60;99.90;;;;;;5033432;28;20088;-77
2022/08/06 02:24:05;;;;;;;2.03;0.30;;;15.60;99.90;;;;;;5033342;28;20053;-77
2022/08/06 02:26:34;;;;;;;2.05;0.22;;;15.60;99.90;;;;;;5033517;28;20049;-77
2022/08/06 02:29:05;;;;;;;1.88;0.30;;;15.60;99.90;;;;;;5034085;28;20089;-77
2022/08/06 02:31:31;;;;;;;2.47;0.22;;;15.70;99.90;;;;;;5034557;28;20061;-77
2022/08/06 02:33:57;;;;;;;2.55;0.30;;;15.70;99.90;;;;;;5034383;28;20120;-77
2022/08/06 02:36:52;;;;;;;1.98;0.22;;;15.70;99.90;;;;;;5033065;28;20515;-77
2022/08/06 02:39:31;;;;;;;1.13;0.20;;;15.70;99.90;;;;;;5030503;28;20053;-77
2022/08/06 02:42:08;;;;;;;1.75;0.30;;;15.60;99.90;;;;;;5034259;28;20057;-77
2022/08/06 02:44:52;;;;;;;1.50;0.30;;;15.60;99.90;;;;;;5033204;28;20077;-77
2022/08/06 02:47:27;;;;;;;3.88;0.28;;;15.60;99.90;;;;;;5032954;28;20087;-77
2022/08/06 02:49:55;;;;;;;2.22;0.40;;;15.70;99.90;;;;;;5032858;28;20128;-77
2022/08/06 02:52:29;;;;;;;2.25;0.35;;;15.70;99.90;;;;;;5032684;28;20099;-77
2022/08/06 02:55:09;;;;;;;1.05;0.38;;;15.70;99.90;;;;;;5033044;28;20128;-77
2022/08/06 02:57:43;;;;;;;1.80;0.30;;;15.70;99.90;;;;;;5033070;28;20057;-77
2022/08/06 03:00:09;;;;;;;0.90;0.35;;;15.70;99.90;;;;;;5034014;28;20123;-77
2022/08/06 03:02:38;;;;;;;3.05;0.40;;;15.60;99.90;;;;;;5032969;28;20562;-77
2022/08/06 03:05:06;;;;;;;2.63;0.30;;;15.60;99.90;;;;;;5032566;28;20374;-77
2022/08/06 03:07:34;;;;;;;1.08;0.20;;;15.60;99.90;;;;;;5032752;28;20057;-77
2022/08/06 03:10:01;;;;;;;5.05;0.50;;;15.60;99.90;;;;;;5033824;28;20045;-77
2022/08/06 03:12:28;;;;;;;0.90;0.40;;;15.60;99.90;;;;;;5033895;28;20125;-77
2022/08/06 03:14:54;;;;;;;2.85;0.40;;;15.60;99.90;;;;;;5032530;28;20060;-77
2022/08/06 03:17:20;;;;;;;1.30;0.60;;;15.60;99.90;;;;;;5033646;28;20037;-77
2022/08/06 03:19:47;;;;;;;1.67;0.50;;;15.60;99.90;;;;;;5032353;28;20061;-77
2022/08/06 03:22:15;;;;;;;2.22;0.50;;;15.60;99.90;;;;;;5033616;28;20123;-77
2022/08/06 03:24:43;;;;;;;3.75;0.70;;;15.50;99.90;;;;;;5033596;28;20393;-77
2022/08/06 03:27:10;;;;;;;1.80;0.50;;;15.40;99.90;;;;;;5033722;28;20041;-77
2022/08/06 03:29:38;;;;;;;2.70;0.60;;;15.40;99.90;;;;;;5033193;28;20154;-77
2022/08/06 03:32:06;;;;;;;3.97;0.73;;;15.30;99.90;;;;;;5038692;28;20512;-77
2022/08/06 03:34:33;;;;;;;1.85;0.70;;;15.30;99.90;;;;;;5040324;28;20128;-77
2022/08/06 03:37:00;;;;;;;4.18;0.70;;;15.20;99.90;;;;;;5040263;28;20046;-77
2022/08/06 03:39:28;;;;;;;3.40;0.90;;;15.10;99.90;;;;;;5040169;28;20037;-77
2022/08/06 03:41:55;;;;;;;5.30;0.90;;;15.00;99.90;;;;;;5040139;28;20049;-77
2022/08/06 03:44:21;;;;;;;4.85;0.88;;;15.00;99.90;;;;;;5040209;28;20076;-78
2022/08/06 03:46:53;;;;;;;2.53;0.70;;;14.90;99.90;;;;;;5038962;28;20049;-78
2022/08/06 03:49:30;;;;;;;3.97;0.90;;;14.90;99.90;;;;;;5038714;28;20081;-78
2022/08/06 03:51:59;;;;;;;5.50;0.82;;;14.90;99.90;;;;;;5039976;28;20048;-78
2022/08/06 03:54:36;;;;;;;5.07;1.00;;;14.80;99.90;;;;;;5039833;28;20041;-78
2022/08/06 03:57:08;;;;;;;4.85;1.17;;;14.80;99.90;;;;;;5038174;28;20128;-78
2022/08/06 03:59:36;;;;;;;2.58;0.65;;;14.80;99.90;;;;;;5037466;28;20049;-78
2022/08/06 04:02:04;;;;;;;3.00;0.88;;;14.70;99.90;;;;;;5038898;28;20392;-78
2022/08/06 04:04:32;;;;;;;3.78;0.70;;;14.70;99.90;;;;;;5038641;28;20041;-78
2022/08/06 04:06:59;;;;;;;1.75;0.70;;;14.70;99.90;;;;;;5039570;28;20388;-78
2022/08/06 04:09:27;;;;;;;2.58;0.70;;;14.60;99.90;;;;;;5038669;28;20451;-78
2022/08/06 04:11:54;;;;;;;3.00;1.00;;;14.60;99.90;;;;;;5038540;28;20052;-78
2022/08/06 04:14:20;;;;;;;4.05;1.08;;;14.50;99.90;;;;;;5039837;28;20072;-78
2022/08/06 04:16:48;;;;;;;2.40;0.65;;;14.50;99.90;;;;;;5039710;28;20519;-78
2022/08/06 04:19:18;;;;;;;2.75;0.70;;;14.50;99.90;;;;;;5038409;28;20091;-78
2022/08/06 04:21:44;;;;;;;3.15;0.90;;;14.40;99.90;;;;;;5038373;28;20088;-78
2022/08/06 04:24:10;;;;;;;3.53;1.13;;;14.40;99.90;;;;;;5039687;28;20102;-78
2022/08/06 04:26:38;;;;;;;7.43;0.93;;;14.40;99.90;;;;;;5039764;28;20046;-78
2022/08/06 04:29:06;;;;;;;2.83;1.10;;;14.40;99.90;;;;;;5039292;28;20187;-78
2022/08/06 04:31:33;;;;;;;2.97;1.00;;;14.40;99.90;;;;;;5039666;28;20049;-78
2022/08/06 04:34:00;;;;;;;4.95;1.50;;;14.50;99.90;;;;;;5038385;28;20049;-78
2022/08/06 04:36:28;;;;;;;4.32;1.40;;;14.50;99.90;;;;;;5038420;28;20053;-78
2022/08/06 04:38:54;;;;;;;3.13;1.25;;;14.50;99.90;;;;;;5039669;28;20133;-78
2022/08/06 04:41:20;;;;;;;2.90;1.35;;;14.50;99.90;;;;;;5039316;28;20045;-78
2022/08/06 04:43:47;;;;;;;5.47;1.35;;;14.50;99.90;;;;;;5034690;28;20099;-78
2022/08/06 04:46:13;;;;;;;2.45;1.60;;;14.40;99.90;;;;;;5036246;28;20065;-78
2022/08/06 04:48:38;;;;;;;2.10;1.02;;;14.40;99.90;;;;;;5034763;28;20416;-78
2022/08/06 04:51:05;;;;;;;3.33;1.30;;;14.40;99.90;;;;;;5035080;28;20052;-78
2022/08/06 04:53:38;;;;;;;2.72;0.98;;;14.40;99.90;;;;;;5035991;28;20493;-78
2022/08/06 04:56:06;;;;;;;1.25;0.90;;;14.50;99.90;;;;;;5035069;28;20045;-78
2022/08/06 04:58:32;;;;;;;3.53;1.05;;;14.50;99.90;;;;;;5036181;28;20037;-78
2022/08/06 05:00:58;;;;;;;3.45;1.02;;;14.50;99.90;;;;;;5036118;28;20045;-78
2022/08/06 05:03:23;;;;;;;3.95;1.30;;;14.50;99.90;;;;;;5034630;28;20059;-77
2022/08/06 05:06:09;;;;;;;3.28;1.40;;;14.40;99.90;;;;;;5035771;28;20095;-77
2022/08/06 05:08:39;;;;;;;5.93;1.50;;;14.40;99.90;;;;;;5035765;28;20140;-77
2022/08/06 05:11:16;;;;;;;5.15;1.52;;;14.40;99.90;;;;;;5034467;28;20485;-77
2022/08/06 05:13:45;;;;;;;4.18;1.48;;;14.50;99.90;;;;;;5035924;28;20405;-77
2022/08/06 05:16:14;;;;;;;5.88;1.45;;;14.60;99.90;;;;;;5035867;28;20045;-77
2022/08/06 05:18:48;;;;;;;3.97;2.35;;;14.70;99.90;;;;;;5035925;28;20103;-78
2022/08/06 05:21:20;;;;;;;5.97;1.48;;;14.80;99.90;;;;;;5035859;28;20056;-77
2022/08/06 05:23:49;;;;;;;2.53;1.10;;;14.90;99.90;;;;;;5034379;28;20128;-77
2022/08/06 05:26:15;;;;;;;2.42;1.10;;;15.00;99.90;;;;;;5035660;28;20057;-77
2022/08/06 05:28:42;;;;;;;3.28;1.20;;;15.20;99.90;;;;;;5034155;28;20084;-77
2022/08/06 05:31:08;;;;;;;3.25;1.05;;;15.30;99.90;;;;;;5035385;28;20053;-77
2022/08/06 05:33:36;;;;;;;3.42;1.05;;;15.40;99.90;;;;;;5035544;28;20048;-77
2022/08/06 05:36:04;;;;;;;2.25;0.85;;;15.50;99.90;;;;;;5034365;28;20102;-77
2022/08/06 05:38:32;;;;;;;4.85;1.10;;;15.60;99.90;;;;;;5035268;28;20099;-77
2022/08/06 05:40:58;;;;;;;3.63;1.10;;;15.60;99.90;;;;;;5035433;28;20049;-77
2022/08/06 05:43:25;;;;;;;3.40;0.98;;;15.70;99.90;;;;;;5033895;28;20098;-77
2022/08/06 05:45:54;;;;;;;1.42;0.55;;;15.80;99.90;;;;;;5035110;28;20033;-77
2022/08/06 05:48:21;;;;;;;4.18;0.70;;;15.80;99.90;;;;;;5035125;28;20120;-77
2022/08/06 05:50:53;;;;;;;2.40;0.60;;;15.90;99.90;;;;;;5033858;28;20045;-77
2022/08/06 05:53:28;;;;;;;2.83;0.50;;;16.00;99.90;;;;;;5033893;28;20072;-77
2022/08/06 05:56:01;;;;;;;4.65;0.65;;;16.10;99.90;;;;;;5034008;28;20291;-77
2022/08/06 05:58:39;;;;;;;2.83;0.70;;;16.20;99.90;;;;;;5035155;28;20068;-77
2022/08/06 06:01:07;;;;;;;3.20;0.68;;;16.30;99.90;;;;;;5035140;28;20077;-78
2022/08/06 06:03:34;;;;;;;1.65;0.47;;;16.30;99.90;;;;;;5034690;28;20045;-78
2022/08/06 06:06:02;;;;;;;2.05;0.57;;;16.30;99.90;;;;;;5034944;28;20037;-78
2022/08/06 06:08:27;;;;;;;2.08;0.40;;;16.40;99.90;;;;;;5033504;28;20120;-77
2022/08/06 06:10:53;;;;;;;1.67;0.50;;;16.40;99.90;;;;;;5034779;28;20045;-78
2022/08/06 06:13:21;;;;;;;2.78;0.43;;;16.40;99.90;;;;;;5034675;28;20046;-77
2022/08/06 06:16:05;;;;;;;5.93;0.70;;;16.40;99.90;;;;;;5034553;28;20045;-77
2022/08/06 06:18:53;;;;;;;2.47;0.47;;;16.40;99.90;;;;;;5033269;28;20045;-77
2022/08/06 06:21:40;;;;;;;2.50;0.50;;;16.40;99.90;;;;;;5033156;28;20115;-78
2022/08/06 06:24:27;;;;;;;1.27;0.57;;;16.40;99.90;;;;;;5040690;28;20128;-76
2022/08/06 06:27:17;;;;;;;3.42;0.60;;;16.40;99.90;;;;;;5052824;28;20044;-76
2022/08/06 06:30:01;;;;;;;4.45;0.63;;;16.50;99.90;;;;;;5053748;28;20083;-76
2022/08/06 06:32:46;;;;;;;4.97;0.80;;;16.60;99.90;;;;;;5053005;28;20049;-76
2022/08/06 06:35:30;;;;;;;4.57;0.90;;;16.80;99.90;;;;;;5052637;28;20045;-76
2022/08/06 06:38:07;;;;;;;3.63;0.80;;;17.20;99.90;;;;;;5052595;28;20049;-76
2022/08/06 06:40:43;;;;;;;2.88;0.63;;;17.40;99.90;;;;;;5052678;28;20045;-76
2022/08/06 06:43:29;;;;;;;4.82;0.90;;;17.60;99.90;;;;;;5052396;28;20080;-76
2022/08/06 06:46:18;;;;;;;2.33;0.73;;;17.80;99.90;;;;;;5053794;28;20123;-77
2022/08/06 06:48:51;;;;;;;3.83;0.85;;;18.10;99.90;;;;;;5053897;28;20045;-76
2022/08/06 06:51:20;;;;;;;4.70;0.80;;;18.20;99.90;;;;;;5052432;28;20499;-77
2022/08/06 06:53:49;;;;;;;2.00;0.60;;;18.10;99.90;;;;;;5053762;28;20086;-76
2022/08/06 06:56:19;;;;;;;3.53;0.93;;;18.20;99.90;;;;;;5053569;28;20088;-76
2022/08/06 06:59:01;;;;;;;2.85;1.15;;;18.20;99.90;;;;;;5053860;28;20059;-76
2022/08/06 07:01:31;;;;;;;3.35;0.88;;;18.20;99.90;;;;;;5053553;28;20041;-77
2022/08/06 07:04:05;;;;;;;5.95;0.80;;;18.20;99.90;;;;;;5052135;28;20040;-77
2022/08/06 07:06:32;;;;;;;3.92;0.90;;;18.20;99.90;;;;;;5052094;28;20076;-77
2022/08/06 07:09:00;;;;;;;3.55;0.98;;;18.40;99.90;;;;;;5052086;28;20123;-77
2022/08/06 07:11:27;;;;;;;2.42;0.75;;;18.70;99.90;;;;;;5053605;28;20045;-76
2022/08/06 07:13:55;;;;;;;4.45;0.75;;;18.50;99.90;;;;;;5053279;28;20545;-77
2022/08/06 07:16:23;;;;;;;1.60;0.50;;;18.40;99.90;;;;;;5053490;28;20048;-76
2022/08/06 07:18:52;;;;;;;2.40;0.85;;;18.30;99.90;;;;;;5052237;28;20523;-76
2022/08/06 07:21:19;;;;;;;4.97;0.80;;;18.20;99.90;;;;;;5052247;28;20051;-76
2022/08/06 07:23:48;;;;;;;3.90;0.85;;;18.10;99.90;;;;;;5051167;28;20037;-76
2022/08/06 07:26:17;;;;;;;4.25;1.05;;;18.20;99.90;;;;;;5052017;28;20056;-76
2022/08/06 07:28:44;;;;;;;5.40;0.95;;;18.50;99.90;;;;;;5052999;28;20106;-76
2022/08/06 07:31:11;;;;;;;5.43;1.67;;;18.70;99.90;;;;;;5051718;28;20131;-77
2022/08/06 07:33:42;;;;;;;4.68;1.27;;;19.10;99.90;;;;;;5053129;28;20061;-77
2022/08/06 07:36:09;;;;;;;5.18;1.30;;;19.30;99.90;;;;;;5049762;28;20405;-76
2022/08/06 07:38:40;;;;;;;6.40;1.02;;;19.60;99.90;;;;;;5035812;28;20132;-77
2022/08/06 07:41:08;;;;;;;3.22;0.98;;;19.70;99.90;;;;;;5032102;28;20054;-77
2022/08/06 07:43:53;;;;;;;3.38;1.02;;;19.80;99.90;;;;;;5033011;28;20049;-77
2022/08/06 07:46:28;;;;;;;5.45;1.50;;;20.10;99.90;;;;;;5044947;28;20192;-76
2022/08/06 07:48:56;;;;;;;3.45;1.00;;;20.20;99.90;;;;;;5051665;28;20499;-77
2022/08/06 07:51:26;;;;;;;4.18;1.00;;;20.30;99.90;;;;;;5051535;28;20048;-76
2022/08/06 07:53:52;;;;;;;3.83;1.13;;;20.30;99.90;;;;;;5044926;28;20052;-77
2022/08/06 07:56:19;;;;;;;3.83;1.10;;;20.30;99.90;;;;;;5052972;28;20080;-77
2022/08/06 07:58:45;;;;;;;3.58;1.20;;;20.40;99.90;;;;;;5052788;28;20491;-77
2022/08/06 08:01:12;;;;;;;3.65;0.80;;;20.70;99.90;;;;;;5051516;28;20056;-77
2022/08/06 08:06:24;;;;;;;2.85;0.88;;;20.80;99.90;;;;;;5051435;28;20053;-77
2022/08/06 08:09:12;;;;;;;2.55;0.80;;;20.90;99.90;;;;;;5048445;28;20045;-77
2022/08/06 08:11:41;;;;;;;2.70;0.93;;;20.80;99.90;;;;;;5041450;28;20087;-76
2022/08/06 08:14:12;;;;;;;4.30;1.10;;;20.90;99.90;;;;;;5039950;28;20405;-77
2022/08/06 08:16:40;;;;;;;6.07;1.48;;;20.90;99.90;;;;;;5042819;28;20049;-77
2022/08/06 08:19:30;;;;;;;3.90;1.40;;;21.00;99.90;;;;;;5054474;28;20037;-77
2022/08/06 08:22:16;;;;;;;4.82;1.48;;;21.10;99.90;;;;;;5056647;28;20044;-77
2022/08/06 08:24:44;;;;;;;3.85;1.50;;;21.10;99.90;;;;;;5054799;28;20059;-77
2022/08/06 08:27:10;;;;;;;4.10;1.30;;;21.30;99.90;;;;;;5051285;28;20041;-76
2022/08/06 08:29:37;;;;;;;2.13;0.93;;;21.50;99.90;;;;;;5050890;28;20060;-77
2022/08/06 08:32:04;;;;;;;4.18;1.20;;;21.60;99.90;;;;;;5054635;28;20455;-78
2022/08/06 08:34:31;;;;;;;2.78;1.35;;;21.70;99.90;;;;;;5054075;28;20416;-78
2022/08/06 08:36:57;;;;;;;11.75;1.67;;;21.70;99.90;;;;;;5054830;28;20040;-79
2022/08/06 08:39:22;;;;;;;3.67;1.10;;;21.60;99.90;;;;;;5053967;28;20049;-79
2022/08/06 08:42:19;;;;;;;7.38;1.08;;;21.60;99.90;;;;;;5055679;28;20040;-79
2022/08/06 08:44:48;;;;;;;3.58;1.20;;;21.80;99.90;;;;;;5040138;28;20056;-78
2022/08/06 08:47:14;;;;;;;2.65;1.00;;;21.70;99.90;;;;;;5054730;28;20049;-78
2022/08/06 08:49:44;;;;;;;2.72;1.17;;;21.50;99.90;;;;;;5055837;28;20067;-78
2022/08/06 08:52:16;;;;;;;5.40;1.30;;;21.50;99.90;;;;;;5054634;28;20063;-78
2022/08/06 08:54:49;;;;;;;3.37;1.33;;;21.70;99.90;;;;;;5056117;28;20498;-77
2022/08/06 08:57:15;;;;;;;;;;;21.80;99.90;;;;;;5055402;28;20044;-81
2022/08/06 08:59:42;;;;;;;3.67;1.17;;;21.80;99.90;;;;;;5054441;28;19924;-81
2022/08/06 09:02:12;;;;;;;3.83;1.85;;;22.10;99.90;;;;;;5054752;28;20063;-81
2022/08/06 09:04:39;;;;;;;3.08;1.42;;;22.30;99.90;;;;;;5054613;28;20047;-85
2022/08/06 09:07:07;;;;;;;3.72;1.35;;;22.30;99.90;;;;;;5055628;28;20087;-81
2022/08/06 09:09:34;;;;;;;3.17;1.25;;;22.10;99.90;;;;;;5054419;28;20075;-82
2022/08/06 09:12:00;;;;;;;3.35;1.30;;;22.20;99.90;;;;;;5054317;28;20053;-79
2022/08/06 09:14:26;;;;;;;3.83;1.90;;;22.30;99.90;;;;;;5055386;28;20048;-78
2022/08/06 09:16:52;;;;;;;3.72;1.42;;;22.40;99.90;;;;;;5054462;28;20045;-79
2022/08/06 09:19:18;;;;;;;4.72;1.63;;;22.60;99.90;;;;;;5054597;28;20043;-79
2022/08/06 09:21:44;;;;;;;4.25;1.80;;;22.80;99.90;;;;;;5054402;28;20458;-79
2022/08/06 09:24:10;;;;;;;7.50;1.75;;;22.80;99.90;;;;;;5055507;28;20045;-78
2022/08/06 09:26:36;;;;;;;3.33;1.55;;;22.70;99.90;;;;;;5055430;28;20067;-78
2022/08/06 09:29:19;;;;;;;3.70;1.40;;;22.90;99.90;;;;;;5053448;28;20053;-78
2022/08/06 09:31:44;;;;;;;;;;;22.90;99.90;;;;;;5054573;28;20106;-79
2022/08/06 09:34:10;;;;;;;3.95;1.88;;;22.90;99.90;;;;;;5055356;28;20384;-78
2022/08/06 09:36:44;;;;;;;4.22;1.60;;;22.70;99.90;;;;;;5055257;28;20440;-78
2022/08/06 09:39:10;;;;;;;3.80;2.05;;;22.60;99.90;;;;;;5055313;28;20112;-83
2022/08/06 09:41:48;;;;;;;3.20;1.63;;;22.70;99.90;;;;;;5053906;28;20444;-79
2022/08/06 09:44:14;;;;;;;4.57;1.90;;;22.70;99.90;;;;;;5053873;28;20045;-79
2022/08/06 09:46:39;;;;;;;3.78;1.80;;;22.80;99.90;;;;;;5055002;28;20056;-78
2022/08/06 09:49:06;;;;;;;5.18;1.73;;;22.90;99.90;;;;;;5053735;28;20059;-80
2022/08/06 09:51:34;;;;;;;4.32;1.75;;;23.10;99.90;;;;;;5053726;28;20055;-78
2022/08/06 09:54:02;;;;;;;5.47;1.95;;;23.00;99.90;;;;;;5053779;28;20052;-78
2022/08/06 09:56:28;;;;;;;3.30;1.58;;;23.00;99.90;;;;;;5053435;28;20048;-78
2022/08/06 09:59:07;;;;;;;3.60;2.05;;;23.00;99.90;;;;;;5052923;28;20048;-78
2022/08/06 10:01:40;;;;;;;6.20;2.10;;;23.10;99.90;;;;;;5053397;28;20041;-78
2022/08/06 10:04:06;;;;;;;2.63;1.48;;;23.30;99.90;;;;;;5053530;28;20045;-78
2022/08/06 10:06:32;;;;;;;3.88;1.95;;;23.30;99.90;;;;;;5054581;28;20037;-79
2022/08/06 10:09:14;;;;;;;4.82;2.20;;;23.40;99.90;;;;;;5054381;28;20416;-78
2022/08/06 10:11:41;;;;;;;4.82;2.20;;;23.30;99.90;;;;;;5053353;28;20052;-79
2022/08/06 10:14:27;;;;;;;3.53;1.80;;;23.30;99.90;;;;;;5054678;28;20032;-79
2022/08/06 10:17:12;;;;;;;3.63;2.00;;;23.40;99.90;;;;;;5054859;28;20059;-79
2022/08/06 10:19:41;;;;;;;3.97;2.08;;;23.50;99.90;;;;;;5054335;28;20399;-79
2022/08/06 10:22:09;;;;;;;4.80;2.03;;;23.60;99.90;;;;;;5053028;28;20140;-79
2022/08/06 10:24:44;;;;;;;3.50;2.03;;;23.70;99.90;;;;;;5054252;28;20072;-79
2022/08/06 10:27:13;;;;;;;4.07;2.28;;;23.70;99.90;;;;;;5052656;28;20412;-80
2022/08/06 10:30:01;;;;;;;3.25;2.08;;;23.60;99.90;;;;;;5052420;28;20064;-80
2022/08/06 10:32:33;;;;;;;4.00;2.50;;;23.60;99.90;;;;;;5053114;28;20087;-79
2022/08/06 10:35:03;;;;;;;4.78;2.33;;;23.50;99.90;;;;;;5052828;28;20053;-80
2022/08/06 10:37:33;;;;;;;5.60;2.70;;;23.50;99.90;;;;;;5052959;28;20041;-80
2022/08/06 10:40:00;;;;;;;3.92;2.30;;;23.40;99.90;;;;;;5053603;28;20052;-79
2022/08/06 10:42:27;;;;;;;4.80;2.70;;;23.60;99.90;;;;;;5052720;28;20171;-79
2022/08/06 10:44:53;;;;;;;5.43;2.33;;;23.50;99.90;;;;;;5054061;28;20045;-80
2022/08/06 10:47:21;;;;;;;5.15;2.42;;;23.60;99.90;;;;;;5053765;28;20492;-80
2022/08/06 10:49:48;;;;;;;4.40;2.58;;;23.70;99.90;;;;;;5052494;28;20055;-79
2022/08/06 10:52:14;;;;;;;5.53;2.72;;;23.50;99.90;;;;;;5054046;28;20065;-79
2022/08/06 10:54:40;;;;;;;9.05;2.85;;;23.70;99.90;;;;;;5052658;28;20504;-79
2022/08/06 10:57:12;;;;;;;4.05;2.50;;;24.00;99.90;;;;;;5052595;28;20498;-79
2022/08/06 10:59:42;;;;;;;5.47;2.50;;;23.90;99.90;;;;;;5053656;28;20059;-81
2022/08/06 11:02:16;;;;;;;4.47;2.35;;;24.00;99.90;;;;;;5054104;28;20037;-80
2022/08/06 11:04:41;;;;;;;4.03;2.47;;;24.20;99.90;;;;;;5053796;28;20053;-79
2022/08/06 11:07:22;;;;;;;3.05;2.00;;;24.50;99.90;;;;;;5052338;28;20045;-79
2022/08/06 11:09:57;;;;;;;3.92;2.58;;;24.50;99.90;;;;;;5053336;28;20438;-79
2022/08/06 11:12:54;;;;;;;4.85;2.60;;;24.30;99.90;;;;;;5053541;28;20128;-79
2022/08/06 11:15:20;;;;;;;7.15;2.20;;;24.10;99.80;;;;;;5052570;28;20123;-79
2022/08/06 11:17:49;;;;;;;5.78;2.45;;;24.10;99.90;;;;;;5053608;28;20056;-79
2022/08/06 11:20:48;;;;;;;4.57;2.15;;;24.40;99.90;;;;;;5052016;28;20049;-79
2022/08/06 11:23:14;;;;;;;5.35;2.17;;;24.40;99.90;;;;;;5041440;28;20049;-79
2022/08/06 11:25:45;;;;;;;4.35;2.25;;;24.10;99.90;;;;;;5053347;28;20053;-79
2022/08/06 11:28:15;;;;;;;3.30;1.77;;;24.20;99.90;;;;;;5051737;28;20041;-79
2022/08/06 11:30:50;;;;;;;3.80;2.15;;;24.40;99.90;;;;;;5053229;28;20515;-79
2022/08/06 11:33:34;;;;;;;4.13;2.30;;;24.60;99.90;;;;;;5052308;28;20060;-79
2022/08/06 11:36:23;;;;;;;6.07;2.40;;;24.60;99.90;;;;;;5052201;28;20053;-79
2022/08/06 11:38:55;;;;;;;3.78;2.10;;;24.70;99.90;;;;;;5052210;28;20088;-79
2022/08/06 11:41:32;;;;;;;6.97;1.90;;;24.80;99.90;;;;;;5052162;28;20126;-79
2022/08/06 11:43:58;;;;;;;2.97;1.95;;;24.90;99.90;;;;;;5053381;28;20045;-78
2022/08/06 11:46:26;;;;;;;5.70;2.00;;;24.80;99.90;;;;;;5053488;28;20052;-79
2022/08/06 11:49:04;;;;;;;4.18;2.28;;;24.90;99.90;;;;;;5053071;28;20037;-79
2022/08/06 11:51:44;;;;;;;3.92;2.22;;;25.30;99.90;;;;;;5051997;28;20551;-79
2022/08/06 11:54:16;;;;;;;4.05;1.70;;;25.20;99.90;;;;;;5057415;28;20110;-79
2022/08/06 11:57:06;;;;;;;3.40;2.22;;;24.90;99.80;;;;;;5057305;28;20048;-79
2022/08/06 11:59:54;;;;;;;4.53;1.77;;;25.00;99.80;;;;;;5055730;28;20084;-79
2022/08/06 12:02:41;;;;;;;4.00;2.10;;;25.00;99.90;;;;;;5055699;28;20048;-79
2022/08/06 12:05:13;;;;;;;3.67;1.90;;;25.00;99.80;;;;;;5057118;28;20056;-79
2022/08/06 12:07:40;;;;;;;4.15;2.28;;;24.60;99.10;;;;;;5055930;28;20049;-79
2022/08/06 12:10:05;;;;;;;6.00;2.58;;;24.70;98.00;;;;;;5055584;28;20049;-79
2022/08/06 12:12:45;;;;;;;2.45;1.80;;;24.70;99.90;;;;;;5055580;28;20072;-79
2022/08/06 12:15:19;;;;;;;4.30;2.50;;;24.70;99.80;;;;;;5055765;28;20065;-79
2022/08/06 12:17:54;;;;;;;3.28;1.92;;;24.60;96.10;;;;;;5055422;28;20083;-79
2022/08/06 12:20:40;;;;;;;3.65;2.05;;;24.50;99.90;;;;;;5055649;28;20120;-79
2022/08/06 12:23:16;;;;;;;3.55;2.10;;;24.60;97.30;;;;;;5056789;28;20112;-79
2022/08/06 12:25:47;;;;;;;6.25;2.40;;;24.60;99.70;;;;;;5056657;28;20091;-79
2022/08/06 12:28:14;;;;;;;4.60;1.98;;;24.60;99.40;;;;;;5056506;28;20073;-78
2022/08/06 12:30:48;;;;;;;7.03;2.22;;;24.60;99.40;;;;;;5056689;28;20080;-79
2022/08/06 12:33:14;;;;;;;4.43;1.90;;;24.60;98.20;;;;;;5056605;28;20112;-79
2022/08/06 12:36:01;;;;;;;4.32;1.80;;;24.50;99.50;;;;;;5055023;28;20053;-79
2022/08/06 12:38:29;;;;;;;3.50;1.95;;;24.60;99.70;;;;;;5055279;28;20484;-79
2022/08/06 12:41:08;;;;;;;5.40;1.80;;;24.70;99.90;;;;;;5056169;28;20516;-79
2022/08/06 12:43:36;;;;;;;3.28;1.85;;;24.80;97.80;;;;;;5055023;28;20049;-79
2022/08/06 12:46:07;;;;;;;4.97;1.83;;;24.80;99.80;;;;;;5055434;28;20068;-79
2022/08/06 12:48:35;;;;;;;3.88;1.65;;;24.90;99.20;;;;;;5056393;28;20076;-79
2022/08/06 12:51:11;;;;;;;3.22;1.90;;;25.00;98.20;;;;;;5055028;28;20056;-79
2022/08/06 12:54:06;;;;;;;3.63;1.88;;;25.00;99.10;;;;;;5056293;28;20123;-79
2022/08/06 12:56:35;;;;;;;3.50;1.90;;;24.90;97.60;;;;;;5054966;28;20076;-79
2022/08/06 12:59:03;;;;;;;3.67;1.90;;;24.90;99.90;;;;;;5055891;28;20626;-79
2022/08/06 13:01:30;;;;;;;3.30;1.48;;;24.60;98.80;;;;;;5054853;28;20103;-79
2022/08/06 13:03:58;;;;;;;4.38;2.20;;;24.60;99.60;;;;;;5054187;28;20126;-79
2022/08/06 13:06:26;;;;;;;3.25;1.45;;;24.70;99.90;;;;;;5056000;28;20033;-79
2022/08/06 13:08:54;;;;;;;4.72;2.00;;;24.80;99.90;;;;;;5055826;28;20100;-79
2022/08/06 13:11:19;;;;;;;5.20;1.90;;;25.00;99.90;;;;;;5055904;28;20128;-80